Time;durP1;ratioP1;P1;durP2;ratioP2;P2;SDS_P1;SDS_P2;PMS_P1;PMS_P2;Temp;Humidity;BMP_temperature;BMP_pressure;BME280_temperature;BME280_humidity;BME280_pressure;Samples;Min_cycle;Max_cycle;Signal;HPM_P1;HPM_P2
2023/12/12 00:00:32;;;;;;;;;;;4.20;99.90;;;;;;5113755;28;20282;-85
2023/12/12 00:02:57;;;;;;;;;;;4.20;99.90;;;;;;5114324;28;19930;-84
2023/12/12 00:05:23;;;;;;;;;;;4.20;99.90;;;;;;5124879;28;19935;-85
2023/12/12 00:07:48;;;;;;;;;;;4.10;99.90;;;;;;5121318;28;19923;-85
2023/12/12 00:10:14;;;;;;;;;;;4.10;99.90;;;;;;5122333;28;19923;-84
2023/12/12 00:12:40;;;;;;;;;;;4.10;99.90;;;;;;5094564;28;20336;-84
2023/12/12 00:15:05;;;;;;;;;;;4.10;99.90;;;;;;5113011;27;19935;-85
2023/12/12 00:17:31;;;;;;;;;;;4.10;99.90;;;;;;5110165;28;19924;-85
2023/12/12 00:19:57;;;;;;;;;;;4.00;99.90;;;;;;5112442;28;19928;-86
2023/12/12 00:22:22;;;;;;;;;;;3.90;99.90;;;;;;5108449;28;20277;-85
2023/12/12 00:24:48;;;;;;;;;;;3.90;99.90;;;;;;5112699;27;20259;-84
2023/12/12 00:27:14;;;;;;;;;;;3.80;99.90;;;;;;5116770;27;19924;-84
2023/12/12 00:29:40;;;;;;;;;;;3.80;99.90;;;;;;5118862;27;19939;-87
2023/12/12 00:32:06;;;;;;;;;;;3.70;99.90;;;;;;5115190;27;20364;-84
2023/12/12 00:34:34;;;;;;;;;;;3.70;99.90;;;;;;5115942;27;20010;-84
2023/12/12 00:37:00;;;;;;;;;;;3.70;99.90;;;;;;5114730;27;19939;-85
2023/12/12 00:39:25;;;;;;;;;;;3.70;99.90;;;;;;5119923;27;19932;-86
2023/12/12 00:41:51;;;;;;;;;;;3.70;99.90;;;;;;5122740;27;19970;-87
2023/12/12 00:44:17;;;;;;;;;;;3.80;99.90;;;;;;5119787;27;19923;-84
2023/12/12 00:46:42;;;;;;;;;;;3.60;99.90;;;;;;5112696;27;20382;-86
2023/12/12 00:49:08;;;;;;;;;;;3.70;99.90;;;;;;5117540;27;20422;-84
2023/12/12 00:51:33;;;;;;;;;;;3.70;99.90;;;;;;5115714;27;19942;-86
2023/12/12 00:53:59;;;;;;;;;;;3.60;99.90;;;;;;5114856;27;20290;-85
2023/12/12 00:56:25;;;;;;;;;;;3.60;99.90;;;;;;5114542;27;19972;-85
2023/12/12 00:58:50;;;;;;;;;;;3.60;99.90;;;;;;5114634;27;20024;-84
2023/12/12 01:01:16;;;;;;;;;;;3.60;99.90;;;;;;5097608;27;19972;-84
2023/12/12 01:03:41;;;;;;;;;;;3.60;99.90;;;;;;5113280;27;19935;-86
2023/12/12 01:06:07;;;;;;;;;;;3.50;99.90;;;;;;5114359;27;19935;-85
2023/12/12 01:08:33;;;;;;;;;;;3.50;99.90;;;;;;5115195;27;20023;-84
2023/12/12 01:10:58;;;;;;;;;;;3.50;99.90;;;;;;5113438;27;20015;-84
2023/12/12 01:13:24;;;;;;;;;;;3.40;99.90;;;;;;5115389;27;20705;-84
2023/12/12 01:15:49;;;;;;;;;;;3.50;99.90;;;;;;5112694;27;19936;-84
2023/12/12 01:18:15;;;;;;;;;;;3.40;99.90;;;;;;5096721;28;19927;-84
2023/12/12 01:20:41;;;;;;;;;;;3.40;99.90;;;;;;5096912;27;20294;-84
2023/12/12 01:23:06;;;;;;;;;;;3.40;99.90;;;;;;5095287;27;20399;-84
2023/12/12 01:25:32;;;;;;;;;;;3.40;99.90;;;;;;5113686;27;20009;-84
2023/12/12 01:27:57;;;;;;;;;;;3.40;99.90;;;;;;5115807;27;19924;-84
2023/12/12 01:30:23;;;;;;;;;;;3.40;99.90;;;;;;5119832;27;19976;-86
2023/12/12 01:32:48;;;;;;;;;;;3.40;99.90;;;;;;5102223;27;19962;-84
2023/12/12 01:35:14;;;;;;;;;;;3.30;99.90;;;;;;5113268;27;19931;-85
2023/12/12 01:37:39;;;;;;;;;;;3.40;99.90;;;;;;5120064;27;20420;-84
2023/12/12 01:40:07;;;;;;;;;;;3.40;99.90;;;;;;5113112;27;19928;-85
2023/12/12 01:42:32;;;;;;;;;;;3.30;99.90;;;;;;5115566;27;19924;-85
2023/12/12 01:44:58;;;;;;;;;;;3.20;99.90;;;;;;5109250;27;19924;-85
2023/12/12 01:47:24;;;;;;;;;;;3.20;99.90;;;;;;5111515;27;19930;-85
2023/12/12 01:49:50;;;;;;;;;;;3.20;99.90;;;;;;5110642;27;20614;-87
2023/12/12 01:52:15;;;;;;;;;;;3.20;99.90;;;;;;5110396;27;19928;-85
2023/12/12 01:54:43;;;;;;;;;;;3.20;99.90;;;;;;5109395;27;19992;-85
2023/12/12 01:57:09;;;;;;;;;;;3.20;99.90;;;;;;5114858;27;20294;-85
2023/12/12 01:59:35;;;;;;;;;;;3.20;99.90;;;;;;5117587;27;19932;-85
2023/12/12 02:02:01;;;;;;;;;;;3.20;99.90;;;;;;5110342;27;19928;-85
2023/12/12 02:04:27;;;;;;;;;;;3.10;99.90;;;;;;5114151;27;20305;-85
2023/12/12 02:06:54;;;;;;;;;;;3.20;99.90;;;;;;5110991;27;20263;-85
2023/12/12 02:09:20;;;;;;;;;;;3.20;99.90;;;;;;5118257;27;20009;-86
2023/12/12 02:11:46;;;;;;;;;;;3.20;99.90;;;;;;5119835;27;20366;-87
2023/12/12 02:14:11;;;;;;;;;;;3.30;99.90;;;;;;5107508;27;19947;-85
2023/12/12 02:16:37;;;;;;;;;;;3.30;99.90;;;;;;5108569;27;19936;-85
2023/12/12 02:19:03;;;;;;;;;;;3.30;99.90;;;;;;5114761;27;19924;-85
2023/12/12 02:21:28;;;;;;;;;;;3.30;99.90;;;;;;5116303;27;19932;-86
2023/12/12 02:23:54;;;;;;;;;;;3.40;99.90;;;;;;5111470;27;20295;-85
2023/12/12 02:26:19;;;;;;;;;;;3.30;99.90;;;;;;5112183;27;19924;-85
2023/12/12 02:28:45;;;;;;;;;;;3.30;99.90;;;;;;5100591;27;19934;-85
2023/12/12 02:31:12;;;;;;;;;;;3.30;99.90;;;;;;5110084;27;20061;-86
2023/12/12 02:33:38;;;;;;;;;;;3.30;99.90;;;;;;5111832;27;19931;-86
2023/12/12 02:36:04;;;;;;;;;;;3.30;99.90;;;;;;5117569;27;19924;-84
2023/12/12 02:38:29;;;;;;;;;;;3.30;99.90;;;;;;5114528;27;19971;-84
2023/12/12 02:40:55;;;;;;;;;;;3.30;99.90;;;;;;5112752;27;20007;-85
2023/12/12 02:43:21;;;;;;;;;;;3.40;99.90;;;;;;5112403;27;19928;-87
2023/12/12 02:45:47;;;;;;;;;;;3.30;99.90;;;;;;5110707;27;19923;-85
2023/12/12 02:48:12;;;;;;;;;;;3.40;99.90;;;;;;5113086;27;19924;-84
2023/12/12 02:50:38;;;;;;;;;;;3.40;99.90;;;;;;5116529;27;19950;-85
2023/12/12 02:53:04;;;;;;;;;;;3.50;99.90;;;;;;5110685;27;19973;-84
2023/12/12 02:55:29;;;;;;;;;;;3.40;99.90;;;;;;5111498;28;19924;-85
2023/12/12 02:57:55;;;;;;;;;;;3.40;99.90;;;;;;5110659;27;19931;-85
2023/12/12 03:00:20;;;;;;;;;;;3.40;99.90;;;;;;5111005;27;20408;-84
2023/12/12 03:02:46;;;;;;;;;;;3.30;99.90;;;;;;5111612;27;19924;-85
2023/12/12 03:05:12;;;;;;;;;;;3.40;99.90;;;;;;5111714;27;21624;-85
2023/12/12 03:07:37;;;;;;;;;;;3.30;99.90;;;;;;5111520;28;19967;-85
2023/12/12 03:10:03;;;;;;;;;;;3.30;99.90;;;;;;5110998;28;19928;-84
2023/12/12 03:12:29;;;;;;;;;;;3.30;99.90;;;;;;5112193;27;19977;-85
2023/12/12 03:14:54;;;;;;;;;;;3.20;99.90;;;;;;5112880;27;19924;-84
2023/12/12 03:17:20;;;;;;;;;;;3.10;99.90;;;;;;5115818;27;19928;-84
2023/12/12 03:19:45;;;;;;;;;;;3.10;99.90;;;;;;5097845;27;19924;-85
2023/12/12 03:22:11;;;;;;;;;;;3.10;99.90;;;;;;5117482;27;19924;-85
2023/12/12 03:24:36;;;;;;;;;;;3.10;99.90;;;;;;5120407;27;19923;-85
2023/12/12 03:27:02;;;;;;;;;;;3.20;99.90;;;;;;5112353;27;19975;-84
2023/12/12 03:29:28;;;;;;;;;;;3.20;99.90;;;;;;5111108;27;19934;-86
2023/12/12 03:31:53;;;;;;;;;;;3.20;99.90;;;;;;5119603;27;19924;-85
2023/12/12 03:34:19;;;;;;;;;;;3.10;99.90;;;;;;5121285;27;19923;-86
2023/12/12 03:36:44;;;;;;;;;;;3.10;99.90;;;;;;5119958;28;19935;-83
2023/12/12 03:39:10;;;;;;;;;;;3.00;99.90;;;;;;5111034;27;21220;-87
2023/12/12 03:41:36;;;;;;;;;;;3.00;99.90;;;;;;5137716;27;19924;-86
2023/12/12 03:44:02;;;;;;;;;;;2.90;99.90;;;;;;5117346;28;20023;-85
2023/12/12 03:46:27;;;;;;;;;;;2.90;99.90;;;;;;5110156;28;19927;-85
2023/12/12 03:48:53;;;;;;;;;;;3.00;99.90;;;;;;5105442;28;19924;-85
2023/12/12 03:51:19;;;;;;;;;;;2.90;99.90;;;;;;5111413;28;19939;-86
2023/12/12 03:53:44;;;;;;;;;;;2.90;99.90;;;;;;5114393;28;19928;-84
2023/12/12 03:56:10;;;;;;;;;;;2.90;99.90;;;;;;5113941;28;19935;-85
2023/12/12 03:58:35;;;;;;;;;;;2.90;99.90;;;;;;5109545;28;20019;-85
2023/12/12 04:01:01;;;;;;;;;;;3.00;99.90;;;;;;5116601;27;19928;-85
2023/12/12 04:03:27;;;;;;;;;;;3.00;99.90;;;;;;5120499;27;19927;-86
2023/12/12 04:05:53;;;;;;;;;;;3.10;99.90;;;;;;5121514;27;19927;-85
2023/12/12 04:08:18;;;;;;;;;;;3.20;99.90;;;;;;5112858;27;19969;-84
2023/12/12 04:10:44;;;;;;;;;;;3.20;99.90;;;;;;5116762;27;19924;-87
2023/12/12 04:13:10;;;;;;;;;;;3.20;99.90;;;;;;5118294;27;19932;-87
2023/12/12 04:15:35;;;;;;;;;;;3.20;99.90;;;;;;5136944;27;19927;-85
2023/12/12 04:18:01;;;;;;;;;;;3.20;99.90;;;;;;5118528;27;20370;-84
2023/12/12 04:20:26;;;;;;;;;;;3.20;99.90;;;;;;5114283;27;20297;-84
2023/12/12 04:22:52;;;;;;;;;;;3.20;99.90;;;;;;5118982;27;19930;-85
2023/12/12 04:25:19;;;;;;;;;;;3.20;99.90;;;;;;5120208;27;20795;-85
2023/12/12 04:27:45;;;;;;;;;;;3.20;99.90;;;;;;5095947;28;19934;-84
2023/12/12 04:30:11;;;;;;;;;;;3.20;99.90;;;;;;5138679;27;19927;-87
2023/12/12 04:32:36;;;;;;;;;;;3.20;99.90;;;;;;5110727;27;19924;-85
2023/12/12 04:35:05;;;;;;;;;;;3.30;99.90;;;;;;5118761;27;19928;-85
2023/12/12 04:37:30;;;;;;;;;;;3.30;99.90;;;;;;5116457;27;19953;-86
2023/12/12 04:39:56;;;;;;;;;;;3.50;99.90;;;;;;5117957;27;19923;-85
2023/12/12 04:42:23;;;;;;;;;;;3.50;99.90;;;;;;5115428;27;19955;-84
2023/12/12 04:44:49;;;;;;;;;;;3.60;99.90;;;;;;5101753;27;19935;-86
2023/12/12 04:47:15;;;;;;;;;;;3.60;99.90;;;;;;5119514;27;19931;-86
2023/12/12 04:49:40;;;;;;;;;;;3.70;99.90;;;;;;5116039;27;19931;-85
2023/12/12 04:52:06;;;;;;;;;;;3.70;99.90;;;;;;5115993;27;19976;-86
2023/12/12 04:54:31;;;;;;;;;;;3.80;99.90;;;;;;5112155;27;19923;-86
2023/12/12 04:56:58;;;;;;;;;;;3.80;99.90;;;;;;5114605;27;19990;-85
2023/12/12 04:59:23;;;;;;;;;;;3.90;99.90;;;;;;5114411;27;19924;-84
2023/12/12 05:01:49;;;;;;;;;;;3.90;99.90;;;;;;5115207;27;19928;-84
2023/12/12 05:04:14;;;;;;;;;;;4.00;99.90;;;;;;5094797;28;19924;-85
2023/12/12 05:06:40;;;;;;;;;;;4.10;99.90;;;;;;5114670;27;19931;-85
2023/12/12 05:09:06;;;;;;;;;;;4.20;99.90;;;;;;5111943;27;19928;-85
2023/12/12 05:11:31;;;;;;;;;;;4.30;99.90;;;;;;5113484;27;19924;-85
2023/12/12 05:13:57;;;;;;;;;;;4.30;99.90;;;;;;5113383;27;19930;-85
2023/12/12 05:16:23;;;;;;;;;;;4.40;99.90;;;;;;5112942;27;19954;-85
2023/12/12 05:18:49;;;;;;;;;;;4.50;99.90;;;;;;5114943;27;20020;-84
2023/12/12 05:21:14;;;;;;;;;;;4.50;99.90;;;;;;5115001;27;19958;-85
2023/12/12 05:23:40;;;;;;;;;;;4.50;99.90;;;;;;5114557;27;19934;-87
2023/12/12 05:26:05;;;;;;;;;;;4.50;99.90;;;;;;5114712;27;20507;-85
2023/12/12 05:28:31;;;;;;;;;;;4.60;99.90;;;;;;5114536;27;19934;-85
2023/12/12 05:30:57;;;;;;;;;;;4.60;99.90;;;;;;5113880;27;19980;-85
2023/12/12 05:33:23;;;;;;;;;;;4.70;99.90;;;;;;5114662;27;20278;-85
2023/12/12 05:35:48;;;;;;;;;;;4.70;99.90;;;;;;5113645;27;20002;-86
2023/12/12 05:38:14;;;;;;;;;;;4.80;99.90;;;;;;5113863;27;20301;-85
2023/12/12 05:40:39;;;;;;;;;;;4.80;99.90;;;;;;5114883;27;19923;-85
2023/12/12 05:43:05;;;;;;;;;;;4.80;99.90;;;;;;5095409;27;19931;-85
2023/12/12 05:45:31;;;;;;;;;;;4.80;99.90;;;;;;5111857;27;20023;-86
2023/12/12 05:47:57;;;;;;;;;;;4.90;99.90;;;;;;5076262;28;19927;-85
2023/12/12 05:50:22;;;;;;;;;;;4.90;99.90;;;;;;5114566;27;20281;-86
2023/12/12 05:52:50;;;;;;;;;;;5.00;99.90;;;;;;5116882;27;19947;-85
2023/12/12 05:55:16;;;;;;;;;;;5.00;99.90;;;;;;5117125;27;19927;-86
2023/12/12 05:57:41;;;;;;;;;;;5.00;99.90;;;;;;5116694;27;19976;-85
2023/12/12 06:00:07;;;;;;;;;;;4.90;99.90;;;;;;5118480;27;19932;-88
2023/12/12 06:02:33;;;;;;;;;;;4.90;99.90;;;;;;5117033;27;19924;-85
2023/12/12 06:04:58;;;;;;;;;;;4.90;99.90;;;;;;5114522;27;19929;-85
2023/12/12 06:07:24;;;;;;;;;;;4.90;99.90;;;;;;5110697;27;20431;-85
2023/12/12 06:09:50;;;;;;;;;;;4.90;99.90;;;;;;5097289;27;19934;-85
2023/12/12 06:12:17;;;;;;;;;;;4.90;99.90;;;;;;5116783;27;19932;-86
2023/12/12 06:14:44;;;;;;;;;;;5.00;99.90;;;;;;5138588;27;19924;-85
2023/12/12 06:17:11;;;;;;;;;;;5.00;99.90;;;;;;5111296;27;19924;-85
2023/12/12 06:19:37;;;;;;;;;;;5.10;99.90;;;;;;5117623;27;20114;-87
2023/12/12 06:22:03;;;;;;;;;;;5.20;99.90;;;;;;5114665;27;20431;-86
2023/12/12 06:24:28;;;;;;;;;;;5.20;99.90;;;;;;5113913;27;19950;-85
2023/12/12 06:26:54;;;;;;;;;;;5.20;99.90;;;;;;5111949;27;19946;-85
2023/12/12 06:29:20;;;;;;;;;;;5.30;99.90;;;;;;5115697;27;19946;-86
2023/12/12 06:31:46;;;;;;;;;;;5.20;99.90;;;;;;5111640;27;20583;-86
2023/12/12 06:34:11;;;;;;;;;;;5.20;99.90;;;;;;5109217;27;19931;-85
2023/12/12 06:36:37;;;;;;;;;;;5.20;99.90;;;;;;5118835;27;19930;-88
2023/12/12 06:39:03;;;;;;;;;;;5.20;99.90;;;;;;5113530;27;20328;-85
2023/12/12 06:41:29;;;;;;;;;;;5.20;99.90;;;;;;5117410;27;20004;-88
2023/12/12 06:43:54;;;;;;;;;;;5.20;99.90;;;;;;5127788;27;19975;-86
2023/12/12 06:46:20;;;;;;;;;;;5.20;99.90;;;;;;5113881;27;19924;-86
2023/12/12 06:48:47;;;;;;;;;;;5.10;99.90;;;;;;5095536;28;20366;-85
2023/12/12 06:51:13;;;;;;;;;;;5.20;99.90;;;;;;5115536;27;19995;-85
2023/12/12 06:53:38;;;;;;;;;;;5.10;99.90;;;;;;5102391;28;20362;-85
2023/12/12 06:56:05;;;;;;;;;;;5.10;99.90;;;;;;5122814;27;19929;-86
2023/12/12 06:58:31;;;;;;;;;;;5.10;99.90;;;;;;5121105;27;19992;-85
2023/12/12 07:00:57;;;;;;;;;;;5.00;99.90;;;;;;5105641;27;20456;-87
2023/12/12 07:03:23;;;;;;;;;;;4.90;99.90;;;;;;5107716;27;19950;-86
2023/12/12 07:05:52;;;;;;;;;;;4.90;99.90;;;;;;5108667;27;20369;-86
2023/12/12 07:08:18;;;;;;;;;;;4.80;99.90;;;;;;5117521;27;20294;-85
2023/12/12 07:10:45;;;;;;;;;;;4.80;99.90;;;;;;5115525;27;19945;-88
2023/12/12 07:13:10;;;;;;;;;;;4.80;99.90;;;;;;5099880;28;19988;-89
2023/12/12 07:15:36;;;;;;;;;;;4.80;99.90;;;;;;5111433;27;19923;-85
2023/12/12 07:18:02;;;;;;;;;;;4.70;99.90;;;;;;5110241;27;20271;-84
2023/12/12 07:20:27;;;;;;;;;;;4.60;99.90;;;;;;5111791;28;19976;-87
2023/12/12 07:22:53;;;;;;;;;;;4.60;99.90;;;;;;5111711;27;19930;-87
2023/12/12 07:25:20;;;;;;;;;;;4.60;99.90;;;;;;5098161;28;20481;-87
2023/12/12 07:27:48;;;;;;;;;;;4.50;99.90;;;;;;5113206;27;19927;-86
2023/12/12 07:30:14;;;;;;;;;;;4.50;99.90;;;;;;5105437;27;19935;-88
2023/12/12 07:32:39;;;;;;;;;;;4.60;99.90;;;;;;5116082;27;20362;-86
2023/12/12 07:35:05;;;;;;;;;;;4.50;99.90;;;;;;5113507;27;20014;-86
2023/12/12 07:37:31;;;;;;;;;;;4.50;99.90;;;;;;5113554;27;19934;-87
2023/12/12 07:39:56;;;;;;;;;;;4.40;99.90;;;;;;5112823;28;19969;-86
2023/12/12 07:42:22;;;;;;;;;;;4.30;99.90;;;;;;5116463;28;19928;-88
2023/12/12 07:44:47;;;;;;;;;;;4.40;99.90;;;;;;5112980;28;19923;-86
2023/12/12 07:47:13;;;;;;;;;;;4.40;99.90;;;;;;5114513;28;19924;-88
2023/12/12 07:49:39;;;;;;;;;;;4.40;99.90;;;;;;5115690;28;19924;-91
2023/12/12 07:52:05;;;;;;;;;;;4.40;99.90;;;;;;5097040;28;19924;-87
2023/12/12 07:54:31;;;;;;;;;;;4.40;99.90;;;;;;5139010;27;20018;-85
2023/12/12 07:56:56;;;;;;;;;;;4.40;99.90;;;;;;5096410;28;20417;-86
2023/12/12 07:59:22;;;;;;;;;;;4.40;99.90;;;;;;5112379;28;19934;-88
2023/12/12 08:01:47;;;;;;;;;;;4.40;99.90;;;;;;5078230;28;20427;-87
2023/12/12 08:04:13;;;;;;;;;;;4.40;99.90;;;;;;5116672;28;19934;-86
2023/12/12 08:06:39;;;;;;;;;;;4.40;99.90;;;;;;5115186;28;19977;-86
2023/12/12 08:09:05;;;;;;;;;;;4.50;99.90;;;;;;5111555;28;19928;-86
2023/12/12 08:11:30;;;;;;;;;;;4.50;99.90;;;;;;5096966;28;19931;-88
2023/12/12 08:13:56;;;;;;;;;;;4.60;99.90;;;;;;5112061;28;20294;-86
2023/12/12 08:16:23;;;;;;;;;;;4.60;99.90;;;;;;5113053;28;19970;-86
2023/12/12 08:18:48;;;;;;;;;;;4.60;99.90;;;;;;5112842;28;19932;-87
2023/12/12 08:21:14;;;;;;;;;;;4.70;99.90;;;;;;5111564;28;19934;-87
2023/12/12 08:23:42;;;;;;;;;;;4.80;99.90;;;;;;5103983;28;19928;-86
2023/12/12 08:26:09;;;;;;;;;;;4.80;99.90;;;;;;5111588;28;19924;-86
2023/12/12 08:28:35;;;;;;;;;;;4.90;99.90;;;;;;5110980;28;19928;-84
2023/12/12 08:31:01;;;;;;;;;;;5.00;99.90;;;;;;5111065;28;19932;-86
2023/12/12 08:33:27;;;;;;;;;;;5.00;99.90;;;;;;5093556;28;19924;-86
2023/12/12 08:35:52;;;;;;;;;;;5.00;99.90;;;;;;5111408;28;20370;-86
2023/12/12 08:38:18;;;;;;;;;;;5.10;99.90;;;;;;5111298;28;19962;-86
2023/12/12 08:40:43;;;;;;;;;;;5.00;99.90;;;;;;5111532;28;20289;-86
2023/12/12 08:43:09;;;;;;;;;;;5.10;99.90;;;;;;5111368;28;19924;-87
2023/12/12 08:45:35;;;;;;;;;;;5.10;99.90;;;;;;5111623;28;19934;-87
2023/12/12 08:48:00;;;;;;;;;;;5.10;99.90;;;;;;5116356;28;20268;-86
2023/12/12 08:50:26;;;;;;;;;;;5.10;99.90;;;;;;5114017;28;19967;-86
2023/12/12 08:52:51;;;;;;;;;;;5.10;99.90;;;;;;5114541;28;19924;-86
2023/12/12 08:55:17;;;;;;;;;;;5.10;99.90;;;;;;5110500;28;19973;-86
2023/12/12 08:57:43;;;;;;;;;;;5.10;99.90;;;;;;5106651;28;19932;-86
2023/12/12 09:00:10;;;;;;;;;;;5.10;99.90;;;;;;5099819;28;20002;-87
2023/12/12 09:02:37;;;;;;;;;;;5.10;99.90;;;;;;5114945;28;19924;-87
2023/12/12 09:05:04;;;;;;;;;;;5.10;99.90;;;;;;5149318;27;19963;-87
2023/12/12 09:07:29;;;;;;;;;;;5.10;99.90;;;;;;5114810;28;20390;-87
2023/12/12 09:09:55;;;;;;;;;;;5.00;99.90;;;;;;5112590;28;19930;-86
2023/12/12 09:12:22;;;;;;;;;;;5.00;99.90;;;;;;5114812;28;20204;-87
2023/12/12 09:14:48;;;;;;;;;;;5.00;99.90;;;;;;5149050;27;19928;-93
2023/12/12 09:17:13;;;;;;;;;;;5.00;99.90;;;;;;5114615;28;20410;-87
2023/12/12 09:19:39;;;;;;;;;;;5.00;99.90;;;;;;5113531;28;20386;-87
2023/12/12 09:22:05;;;;;;;;;;;5.00;99.90;;;;;;5107275;28;19924;-87
2023/12/12 09:24:33;;;;;;;;;;;5.00;99.90;;;;;;5109246;28;19935;-87
2023/12/12 09:26:59;;;;;;;;;;;5.00;99.90;;;;;;5110209;28;20026;-87
2023/12/12 09:29:24;;;;;;;;;;;5.10;99.90;;;;;;5114502;28;20006;-87
2023/12/12 09:31:50;;;;;;;;;;;5.10;99.90;;;;;;5110995;28;20433;-87
2023/12/12 09:34:16;;;;;;;;;;;5.10;99.90;;;;;;5115345;28;19927;-87
2023/12/12 09:36:41;;;;;;;;;;;5.20;99.90;;;;;;5114395;28;19928;-87
2023/12/12 09:39:07;;;;;;;;;;;5.20;99.90;;;;;;5113450;27;19923;-87
2023/12/12 09:41:33;;;;;;;;;;;5.20;99.90;;;;;;5109456;27;20384;-87
2023/12/12 09:43:59;;;;;;;;;;;5.20;99.90;;;;;;5113716;27;20386;-86
2023/12/12 09:46:25;;;;;;;;;;;5.20;99.90;;;;;;5111727;27;19924;-83
2023/12/12 09:48:52;;;;;;;;;;;5.30;99.90;;;;;;5098237;27;20277;-87
2023/12/12 09:51:17;;;;;;;;;;;5.30;99.90;;;;;;5116300;27;19935;-89
2023/12/12 09:53:46;;;;;;;;;;;5.30;99.90;;;;;;5133234;27;19927;-87
2023/12/12 09:56:18;;;;;;;;;;;5.30;99.90;;;;;;5140330;27;19970;-87
2023/12/12 09:58:45;;;;;;;;;;;5.30;99.90;;;;;;5096221;28;19950;-87
2023/12/12 10:01:11;;;;;;;;;;;5.40;99.90;;;;;;5113626;28;19932;-87
2023/12/12 10:03:38;;;;;;;;;;;5.40;99.90;;;;;;5114644;28;19923;-87
2023/12/12 10:06:06;;;;;;;;;;;5.40;99.90;;;;;;5113655;27;19949;-88
2023/12/12 10:08:34;;;;;;;;;;;5.50;99.90;;;;;;5122433;27;19931;-87
2023/12/12 10:10:59;;;;;;;;;;;5.50;99.90;;;;;;5116088;27;19924;-87
2023/12/12 10:13:26;;;;;;;;;;;5.60;99.90;;;;;;5116039;27;20294;-87
2023/12/12 10:15:51;;;;;;;;;;;5.50;99.90;;;;;;5112259;28;20275;-87
2023/12/12 10:18:17;;;;;;;;;;;5.60;99.90;;;;;;5117441;28;19930;-88
2023/12/12 10:20:42;;;;;;;;;;;5.60;99.90;;;;;;5138329;27;19924;-87
2023/12/12 10:23:08;;;;;;;;;;;5.60;99.90;;;;;;5143477;27;20250;-88
2023/12/12 10:25:35;;;;;;;;;;;5.60;99.90;;;;;;5118720;27;19930;-91
2023/12/12 10:28:01;;;;;;;;;;;5.70;99.90;;;;;;5111285;28;19977;-87
2023/12/12 10:30:27;;;;;;;;;;;5.70;99.90;;;;;;5112716;28;20006;-87
2023/12/12 10:32:54;;;;;;;;;;;5.80;99.90;;;;;;5110631;27;20035;-88
2023/12/12 10:35:20;;;;;;;;;;;5.80;99.90;;;;;;5112662;28;19924;-87
2023/12/12 10:37:46;;;;;;;;;;;5.90;99.90;;;;;;5112596;28;19924;-87
2023/12/12 10:40:21;;;;;;;;;;;5.90;99.90;;;;;;5110612;27;20381;-87
2023/12/12 10:42:47;;;;;;;;;;;5.90;99.90;;;;;;5138801;27;19931;-87
2023/12/12 10:45:14;;;;;;;;;;;6.00;99.90;;;;;;5113237;27;19924;-86
2023/12/12 10:47:41;;;;;;;;;;;6.00;99.90;;;;;;5111991;27;19931;-88
2023/12/12 10:50:09;;;;;;;;;;;6.10;99.90;;;;;;5119104;27;19924;-88
2023/12/12 10:52:35;;;;;;;;;;;6.20;99.90;;;;;;5124312;27;19923;-87
2023/12/12 10:55:01;;;;;;;;;;;6.30;99.90;;;;;;5121765;27;20732;-88
2023/12/12 10:57:29;;;;;;;;;;;6.40;99.90;;;;;;5122127;27;19923;-88
2023/12/12 10:59:56;;;;;;;;;;;6.40;99.90;;;;;;5093345;28;19984;-86
2023/12/12 11:02:23;;;;;;;;;;;6.50;99.90;;;;;;5142842;27;20294;-87
2023/12/12 11:04:49;;;;;;;;;;;6.50;99.90;;;;;;5111412;27;19928;-88
2023/12/12 11:07:15;;;;;;;;;;;6.60;99.90;;;;;;5119318;27;19931;-87
2023/12/12 11:09:41;;;;;;;;;;;6.60;99.90;;;;;;5112523;27;19947;-87
2023/12/12 11:12:07;;;;;;;;;;;6.70;99.90;;;;;;5114847;27;20056;-87
2023/12/12 11:14:33;;;;;;;;;;;6.70;99.90;;;;;;5114872;27;20022;-88
2023/12/12 11:16:59;;;;;;;;;;;6.80;99.90;;;;;;5109635;27;19930;-87
2023/12/12 11:19:25;;;;;;;;;;;6.80;99.90;;;;;;5112221;27;19927;-84
2023/12/12 11:21:51;;;;;;;;;;;6.80;99.90;;;;;;5135874;27;19979;-87
2023/12/12 11:24:17;;;;;;;;;;;6.80;99.90;;;;;;5106995;28;19967;-87
2023/12/12 11:26:45;;;;;;;;;;;6.90;99.90;;;;;;5112964;28;19928;-87
2023/12/12 11:29:11;;;;;;;;;;;6.80;99.90;;;;;;5113260;28;19924;-86
2023/12/12 11:31:37;;;;;;;;;;;6.90;99.90;;;;;;5089691;28;19938;-87
2023/12/12 11:34:03;;;;;;;;;;;6.90;99.90;;;;;;5110908;28;20396;-87
2023/12/12 11:36:47;;;;;;;;;;;6.90;99.90;;;;;;5111900;28;19928;-86
2023/12/12 11:39:13;;;;;;;;;;;7.00;99.90;;;;;;5112680;28;20442;-87
2023/12/12 11:41:38;;;;;;;;;;;7.00;99.90;;;;;;5111417;28;20006;-86
2023/12/12 11:44:04;;;;;;;;;;;7.10;99.90;;;;;;5112686;28;19924;-86
2023/12/12 11:46:30;;;;;;;;;;;7.00;99.90;;;;;;5145095;27;20009;-86
2023/12/12 11:48:55;;;;;;;;;;;7.10;99.90;;;;;;5111939;28;19963;-87
2023/12/12 11:51:33;;;;;;;;;;;7.10;99.90;;;;;;5112953;28;19974;-86
2023/12/12 11:54:03;;;;;;;;;;;7.10;99.90;;;;;;5106204;28;20116;-86
2023/12/12 11:56:29;;;;;;;;;;;7.20;99.90;;;;;;5110197;28;19969;-86
2023/12/12 11:58:55;;;;;;;;;;;7.20;99.90;;;;;;5102120;28;20363;-86
2023/12/12 12:01:23;;;;;;;;;;;7.30;99.90;;;;;;5106371;28;20019;-86
2023/12/12 12:03:52;;;;;;;;;;;7.30;99.90;;;;;;5108145;28;19928;-86
2023/12/12 12:06:18;;;;;;;;;;;7.30;99.90;;;;;;5116963;28;20323;-86
2023/12/12 12:08:44;;;;;;;;;;;7.30;99.90;;;;;;5112052;28;19924;-86
2023/12/12 12:11:11;;;;;;;;;;;7.30;99.90;;;;;;5112848;28;19924;-86
2023/12/12 13:03:50;;;;;;;41.85;13.60;;;7.30;99.90;;;;;;5055377;28;20448;-80
2023/12/12 13:06:17;;;;;;;28.65;11.10;;;7.50;99.90;;;;;;5044615;28;20054;-79
2023/12/12 13:08:43;;;;;;;31.38;11.48;;;7.40;99.90;;;;;;5033901;28;20054;-80
2023/12/12 13:11:09;;;;;;;29.50;11.40;;;7.40;99.90;;;;;;5102480;22;20042;-80
2023/12/12 13:13:35;;;;;;;30.33;9.93;;;7.50;99.90;;;;;;4997317;28;20073;-80
2023/12/12 13:16:01;;;;;;;34.50;10.40;;;7.50;99.90;;;;;;5067272;28;20046;-80
2023/12/12 13:18:28;;;;;;;24.90;10.52;;;7.50;99.90;;;;;;4981735;28;20070;-80
2023/12/12 13:20:53;;;;;;;27.27;10.75;;;7.50;99.90;;;;;;4982464;28;20150;-80
2023/12/12 13:23:19;;;;;;;26.45;10.27;;;7.50;99.90;;;;;;4981759;28;20066;-80
2023/12/12 13:25:45;;;;;;;29.85;10.68;;;7.50;99.90;;;;;;4982157;28;20049;-80
2023/12/12 13:28:11;;;;;;;24.13;9.85;;;7.60;99.90;;;;;;4982505;28;20069;-80
2023/12/12 13:30:36;;;;;;;30.70;9.63;;;7.60;99.90;;;;;;4981025;28;20042;-80
2023/12/12 13:33:04;;;;;;;38.45;12.63;;;7.60;99.90;;;;;;4965585;28;20052;-81
2023/12/12 13:35:29;;;;;;;35.25;11.55;;;7.60;99.90;;;;;;4996592;28;20096;-80
2023/12/12 13:37:55;;;;;;;30.55;11.50;;;7.60;99.90;;;;;;4998083;28;20054;-80
2023/12/12 13:40:21;;;;;;;30.05;11.38;;;7.60;99.90;;;;;;4981619;28;20071;-80
2023/12/12 13:42:48;;;;;;;34.92;12.30;;;7.50;99.90;;;;;;4997364;28;20046;-80
2023/12/12 13:45:13;;;;;;;34.17;11.65;;;7.50;99.90;;;;;;4998375;28;20307;-80
2023/12/12 13:47:39;;;;;;;34.97;12.65;;;7.50;99.90;;;;;;4996163;28;20054;-80
2023/12/12 13:50:06;;;;;;;31.13;11.15;;;7.50;99.90;;;;;;4981973;28;20042;-80
2023/12/12 13:52:32;;;;;;;28.13;10.77;;;7.50;99.90;;;;;;4996010;28;20095;-80
2023/12/12 13:54:58;;;;;;;25.30;10.63;;;7.50;99.90;;;;;;4998832;28;20041;-81
2023/12/12 13:57:24;;;;;;;30.65;12.50;;;7.50;99.90;;;;;;4997357;28;20042;-80
2023/12/12 13:59:50;;;;;;;27.75;10.25;;;7.50;99.90;;;;;;4997095;28;20135;-80
2023/12/12 14:02:16;;;;;;;41.70;11.60;;;7.50;99.90;;;;;;4997402;28;20046;-81
2023/12/12 14:04:43;;;;;;;48.20;12.77;;;7.50;99.90;;;;;;4979923;28;20033;-80
2023/12/12 14:07:09;;;;;;;41.67;12.40;;;7.50;99.90;;;;;;5055223;28;20038;-80
2023/12/12 14:09:34;;;;;;;34.10;12.10;;;7.50;99.90;;;;;;4967467;28;20452;-78
2023/12/12 14:12:01;;;;;;;34.05;10.88;;;7.60;99.90;;;;;;4983002;28;20160;-80
2023/12/12 14:14:27;;;;;;;35.78;11.75;;;7.50;99.90;;;;;;4981022;28;20487;-80
2023/12/12 14:16:53;;;;;;;40.45;12.15;;;7.60;99.90;;;;;;5051288;28;20084;-80
2023/12/12 14:19:19;;;;;;;32.67;10.48;;;7.60;99.90;;;;;;4988565;28;20042;-80
2023/12/12 14:21:49;;;;;;;44.35;11.25;;;7.60;99.90;;;;;;4987521;28;20106;-80
2023/12/12 14:24:15;;;;;;;34.00;10.52;;;7.50;99.90;;;;;;4984588;28;20054;-80
2023/12/12 14:26:41;;;;;;;48.25;11.80;;;7.60;99.90;;;;;;4948692;28;20065;-80
2023/12/12 14:29:07;;;;;;;45.00;12.93;;;7.60;99.90;;;;;;4998892;28;20133;-80
2023/12/12 14:31:32;;;;;;;36.63;11.02;;;7.60;99.90;;;;;;4968641;28;20527;-80
2023/12/12 14:33:58;;;;;;;31.13;11.20;;;7.60;99.90;;;;;;4952538;28;20411;-80
2023/12/12 14:36:24;;;;;;;31.60;11.50;;;7.60;99.90;;;;;;4967628;28;20050;-80
2023/12/12 14:38:50;;;;;;;26.25;11.40;;;7.60;99.90;;;;;;4989367;28;20042;-80
2023/12/12 14:41:17;;;;;;;31.80;11.43;;;7.60;99.90;;;;;;4993545;28;20069;-80
2023/12/12 14:43:46;;;;;;;39.00;13.27;;;7.60;99.90;;;;;;4989434;28;20042;-80
2023/12/12 14:46:12;;;;;;;34.28;11.25;;;7.60;99.90;;;;;;4962275;28;20046;-80
2023/12/12 14:48:38;;;;;;;33.55;11.07;;;7.60;99.90;;;;;;4991772;28;20102;-79
2023/12/12 14:51:04;;;;;;;39.65;12.60;;;7.60;99.90;;;;;;4976348;28;20054;-80
2023/12/12 14:53:30;;;;;;;35.83;12.93;;;7.60;99.90;;;;;;4966655;28;20047;-80
2023/12/12 14:55:55;;;;;;;34.47;10.70;;;7.60;99.90;;;;;;4981348;28;20068;-80